sensor_id;sensor_type;location;lat;lon;timestamp;P1;durP1;ratioP1;P2;durP2;ratioP2
42384;SDS011;28042;43.986;22.860;2023-04-25T00:01:35;29.45;;;24.73;;
42384;SDS011;28042;43.986;22.860;2023-04-25T00:04:02;28.10;;;23.63;;
42384;SDS011;28042;43.986;22.860;2023-04-25T00:06:28;26.23;;;23.23;;
42384;SDS011;28042;43.986;22.860;2023-04-25T00:08:56;26.75;;;23.30;;
42384;SDS011;28042;43.986;22.860;2023-04-25T00:11:22;26.83;;;24.02;;
42384;SDS011;28042;43.986;22.860;2023-04-25T00:13:48;27.08;;;24.33;;
42384;SDS011;28042;43.986;22.860;2023-04-25T00:16:15;31.80;;;24.20;;
42384;SDS011;28042;43.986;22.860;2023-04-25T00:18:42;26.48;;;23.73;;
42384;SDS011;28042;43.986;22.860;2023-04-25T00:21:08;26.88;;;23.98;;
42384;SDS011;28042;43.986;22.860;2023-04-25T00:23:33;27.27;;;24.40;;
42384;SDS011;28042;43.986;22.860;2023-04-25T00:26:01;26.77;;;23.05;;
42384;SDS011;28042;43.986;22.860;2023-04-25T00:28:27;29.55;;;23.40;;
42384;SDS011;28042;43.986;22.860;2023-04-25T00:30:53;28.20;;;25.08;;
42384;SDS011;28042;43.986;22.860;2023-04-25T00:33:18;28.33;;;24.50;;
42384;SDS011;28042;43.986;22.860;2023-04-25T00:35:44;26.42;;;23.15;;
42384;SDS011;28042;43.986;22.860;2023-04-25T00:38:09;29.30;;;26.13;;
42384;SDS011;28042;43.986;22.860;2023-04-25T00:40:35;32.42;;;25.20;;
42384;SDS011;28042;43.986;22.860;2023-04-25T00:43:00;32.22;;;27.25;;
42384;SDS011;28042;43.986;22.860;2023-04-25T00:45:29;31.17;;;26.75;;
42384;SDS011;28042;43.986;22.860;2023-04-25T00:47:55;31.10;;;25.50;;
42384;SDS011;28042;43.986;22.860;2023-04-25T00:50:21;31.58;;;25.80;;
42384;SDS011;28042;43.986;22.860;2023-04-25T00:52:47;33.03;;;28.23;;
42384;SDS011;28042;43.986;22.860;2023-04-25T00:55:13;32.30;;;27.55;;
42384;SDS011;28042;43.986;22.860;2023-04-25T00:57:38;32.83;;;27.08;;
42384;SDS011;28042;43.986;22.860;2023-04-25T01:00:06;34.22;;;28.27;;
42384;SDS011;28042;43.986;22.860;2023-04-25T01:02:34;31.05;;;27.63;;
42384;SDS011;28042;43.986;22.860;2023-04-25T01:05:00;34.53;;;27.27;;
42384;SDS011;28042;43.986;22.860;2023-04-25T01:07:26;35.20;;;28.50;;
42384;SDS011;28042;43.986;22.860;2023-04-25T01:09:52;32.75;;;27.50;;
42384;SDS011;28042;43.986;22.860;2023-04-25T01:12:18;34.85;;;27.30;;
42384;SDS011;28042;43.986;22.860;2023-04-25T01:14:43;32.42;;;27.70;;
42384;SDS011;28042;43.986;22.860;2023-04-25T01:17:09;36.65;;;27.15;;
42384;SDS011;28042;43.986;22.860;2023-04-25T01:19:36;37.63;;;28.90;;
42384;SDS011;28042;43.986;22.860;2023-04-25T01:22:01;36.67;;;28.50;;
42384;SDS011;28042;43.986;22.860;2023-04-25T01:24:27;34.45;;;28.00;;
42384;SDS011;28042;43.986;22.860;2023-04-25T01:26:53;32.28;;;27.55;;
42384;SDS011;28042;43.986;22.860;2023-04-25T01:29:21;36.88;;;27.85;;
42384;SDS011;28042;43.986;22.860;2023-04-25T01:31:47;34.53;;;27.88;;
42384;SDS011;28042;43.986;22.860;2023-04-25T01:34:13;40.10;;;31.08;;
42384;SDS011;28042;43.986;22.860;2023-04-25T01:36:38;38.28;;;30.42;;
42384;SDS011;28042;43.986;22.860;2023-04-25T01:39:05;39.20;;;29.50;;
42384;SDS011;28042;43.986;22.860;2023-04-25T01:41:31;37.35;;;30.45;;
42384;SDS011;28042;43.986;22.860;2023-04-25T01:43:57;44.22;;;31.00;;
42384;SDS011;28042;43.986;22.860;2023-04-25T01:46:22;42.28;;;31.20;;
42384;SDS011;28042;43.986;22.860;2023-04-25T01:48:48;43.55;;;31.67;;
42384;SDS011;28042;43.986;22.860;2023-04-25T01:51:14;44.10;;;31.27;;
42384;SDS011;28042;43.986;22.860;2023-04-25T01:53:40;46.35;;;32.40;;
42384;SDS011;28042;43.986;22.860;2023-04-25T01:56:06;45.22;;;32.05;;
42384;SDS011;28042;43.986;22.860;2023-04-25T01:58:32;47.17;;;32.85;;
42384;SDS011;28042;43.986;22.860;2023-04-25T02:00:57;47.33;;;32.35;;
42384;SDS011;28042;43.986;22.860;2023-04-25T02:03:23;47.92;;;33.50;;
42384;SDS011;28042;43.986;22.860;2023-04-25T02:05:48;52.60;;;34.88;;
42384;SDS011;28042;43.986;22.860;2023-04-25T02:08:16;43.78;;;32.63;;
42384;SDS011;28042;43.986;22.860;2023-04-25T02:10:43;42.08;;;31.10;;
42384;SDS011;28042;43.986;22.860;2023-04-25T02:13:08;43.60;;;31.90;;
42384;SDS011;28042;43.986;22.860;2023-04-25T02:15:34;51.75;;;33.08;;
42384;SDS011;28042;43.986;22.860;2023-04-25T02:18:00;52.38;;;33.40;;
42384;SDS011;28042;43.986;22.860;2023-04-25T02:20:26;51.25;;;34.00;;
42384;SDS011;28042;43.986;22.860;2023-04-25T02:22:53;48.27;;;32.13;;
42384;SDS011;28042;43.986;22.860;2023-04-25T02:25:20;44.72;;;31.80;;
42384;SDS011;28042;43.986;22.860;2023-04-25T02:27:46;42.83;;;30.23;;
42384;SDS011;28042;43.986;22.860;2023-04-25T02:30:12;46.65;;;31.23;;
42384;SDS011;28042;43.986;22.860;2023-04-25T02:32:38;54.15;;;32.40;;
42384;SDS011;28042;43.986;22.860;2023-04-25T02:35:04;51.15;;;32.08;;
42384;SDS011;28042;43.986;22.860;2023-04-25T02:37:31;57.08;;;35.40;;
42384;SDS011;28042;43.986;22.860;2023-04-25T02:40:00;56.97;;;34.08;;
42384;SDS011;28042;43.986;22.860;2023-04-25T02:42:27;50.97;;;33.20;;
42384;SDS011;28042;43.986;22.860;2023-04-25T02:44:52;54.65;;;35.90;;
42384;SDS011;28042;43.986;22.860;2023-04-25T02:47:18;61.55;;;37.45;;
42384;SDS011;28042;43.986;22.860;2023-04-25T02:49:44;60.90;;;36.92;;
42384;SDS011;28042;43.986;22.860;2023-04-25T02:52:11;54.25;;;35.10;;
42384;SDS011;28042;43.986;22.860;2023-04-25T02:54:37;56.35;;;35.17;;
42384;SDS011;28042;43.986;22.860;2023-04-25T02:57:03;58.53;;;35.35;;
42384;SDS011;28042;43.986;22.860;2023-04-25T02:59:29;68.63;;;38.22;;
42384;SDS011;28042;43.986;22.860;2023-04-25T03:01:54;67.32;;;39.97;;
42384;SDS011;28042;43.986;22.860;2023-04-25T03:04:20;68.85;;;40.85;;
42384;SDS011;28042;43.986;22.860;2023-04-25T03:06:46;73.57;;;41.35;;
42384;SDS011;28042;43.986;22.860;2023-04-25T03:09:11;75.13;;;43.35;;
42384;SDS011;28042;43.986;22.860;2023-04-25T03:11:38;81.13;;;44.85;;
42384;SDS011;28042;43.986;22.860;2023-04-25T03:14:04;83.80;;;45.50;;
42384;SDS011;28042;43.986;22.860;2023-04-25T03:16:30;136.48;;;63.42;;
42384;SDS011;28042;43.986;22.860;2023-04-25T03:18:56;148.02;;;66.43;;
42384;SDS011;28042;43.986;22.860;2023-04-25T03:21:22;150.98;;;69.65;;
42384;SDS011;28042;43.986;22.860;2023-04-25T03:23:47;88.93;;;49.13;;
42384;SDS011;28042;43.986;22.860;2023-04-25T03:26:13;76.80;;;43.58;;
42384;SDS011;28042;43.986;22.860;2023-04-25T03:28:38;65.13;;;39.25;;
42384;SDS011;28042;43.986;22.860;2023-04-25T03:31:05;124.22;;;82.00;;
42384;SDS011;28042;43.986;22.860;2023-04-25T03:33:30;76.72;;;44.63;;
42384;SDS011;28042;43.986;22.860;2023-04-25T03:35:56;64.63;;;42.33;;
42384;SDS011;28042;43.986;22.860;2023-04-25T03:38:21;62.38;;;38.90;;
42384;SDS011;28042;43.986;22.860;2023-04-25T03:40:47;58.83;;;41.30;;
42384;SDS011;28042;43.986;22.860;2023-04-25T03:43:12;53.33;;;38.80;;
42384;SDS011;28042;43.986;22.860;2023-04-25T03:45:38;52.65;;;38.95;;
42384;SDS011;28042;43.986;22.860;2023-04-25T03:48:03;51.78;;;37.78;;
42384;SDS011;28042;43.986;22.860;2023-04-25T03:50:29;61.83;;;39.22;;
42384;SDS011;28042;43.986;22.860;2023-04-25T03:52:54;56.55;;;41.67;;
42384;SDS011;28042;43.986;22.860;2023-04-25T03:55:20;63.60;;;44.35;;
42384;SDS011;28042;43.986;22.860;2023-04-25T03:57:45;54.13;;;39.08;;
42384;SDS011;28042;43.986;22.860;2023-04-25T04:00:11;55.17;;;35.05;;
42384;SDS011;28042;43.986;22.860;2023-04-25T04:02:38;48.33;;;35.20;;
42384;SDS011;28042;43.986;22.860;2023-04-25T04:05:04;58.45;;;43.17;;
42384;SDS011;28042;43.986;22.860;2023-04-25T04:07:30;48.10;;;37.03;;
42384;SDS011;28042;43.986;22.860;2023-04-25T04:09:58;46.50;;;36.30;;
42384;SDS011;28042;43.986;22.860;2023-04-25T04:12:23;50.70;;;38.35;;
42384;SDS011;28042;43.986;22.860;2023-04-25T04:14:49;46.55;;;32.40;;
42384;SDS011;28042;43.986;22.860;2023-04-25T04:17:14;39.63;;;29.02;;
42384;SDS011;28042;43.986;22.860;2023-04-25T04:19:40;37.80;;;30.67;;
42384;SDS011;28042;43.986;22.860;2023-04-25T04:22:05;41.47;;;31.88;;
42384;SDS011;28042;43.986;22.860;2023-04-25T04:24:31;41.97;;;31.25;;
42384;SDS011;28042;43.986;22.860;2023-04-25T04:26:56;43.42;;;29.42;;
42384;SDS011;28042;43.986;22.860;2023-04-25T04:29:22;42.88;;;32.10;;
42384;SDS011;28042;43.986;22.860;2023-04-25T04:31:50;41.10;;;31.77;;
42384;SDS011;28042;43.986;22.860;2023-04-25T04:34:17;39.20;;;30.00;;
42384;SDS011;28042;43.986;22.860;2023-04-25T04:36:43;37.00;;;30.20;;
42384;SDS011;28042;43.986;22.860;2023-04-25T04:41:36;36.33;;;29.40;;
42384;SDS011;28042;43.986;22.860;2023-04-25T04:44:02;37.15;;;29.20;;
42384;SDS011;28042;43.986;22.860;2023-04-25T04:46:28;36.67;;;30.50;;
42384;SDS011;28042;43.986;22.860;2023-04-25T04:48:53;34.78;;;29.85;;
42384;SDS011;28042;43.986;22.860;2023-04-25T04:51:19;35.38;;;30.45;;
42384;SDS011;28042;43.986;22.860;2023-04-25T04:53:45;37.33;;;30.67;;
42384;SDS011;28042;43.986;22.860;2023-04-25T04:56:11;35.63;;;28.95;;
42384;SDS011;28042;43.986;22.860;2023-04-25T04:58:36;33.97;;;28.30;;
42384;SDS011;28042;43.986;22.860;2023-04-25T05:01:02;37.55;;;27.75;;
42384;SDS011;28042;43.986;22.860;2023-04-25T05:03:28;33.47;;;27.67;;
42384;SDS011;28042;43.986;22.860;2023-04-25T05:05:54;32.45;;;28.95;;
42384;SDS011;28042;43.986;22.860;2023-04-25T05:08:20;37.40;;;32.25;;
42384;SDS011;28042;43.986;22.860;2023-04-25T05:10:45;32.47;;;27.25;;
42384;SDS011;28042;43.986;22.860;2023-04-25T05:13:11;32.15;;;25.92;;
42384;SDS011;28042;43.986;22.860;2023-04-25T05:15:36;27.83;;;24.80;;
42384;SDS011;28042;43.986;22.860;2023-04-25T05:18:02;27.98;;;24.65;;
42384;SDS011;28042;43.986;22.860;2023-04-25T05:20:27;28.38;;;23.90;;
42384;SDS011;28042;43.986;22.860;2023-04-25T05:22:53;25.30;;;22.35;;
42384;SDS011;28042;43.986;22.860;2023-04-25T05:25:18;28.55;;;22.55;;
42384;SDS011;28042;43.986;22.860;2023-04-25T05:27:45;28.53;;;22.67;;
42384;SDS011;28042;43.986;22.860;2023-04-25T05:30:11;25.25;;;22.52;;
42384;SDS011;28042;43.986;22.860;2023-04-25T05:32:36;26.73;;;22.40;;
42384;SDS011;28042;43.986;22.860;2023-04-25T05:35:02;25.50;;;20.92;;
42384;SDS011;28042;43.986;22.860;2023-04-25T05:37:27;28.38;;;22.58;;
42384;SDS011;28042;43.986;22.860;2023-04-25T05:42:20;20.58;;;17.35;;
42384;SDS011;28042;43.986;22.860;2023-04-25T05:44:46;17.20;;;15.02;;
42384;SDS011;28042;43.986;22.860;2023-04-25T05:47:11;16.02;;;13.80;;
42384;SDS011;28042;43.986;22.860;2023-04-25T05:49:37;12.75;;;11.05;;
42384;SDS011;28042;43.986;22.860;2023-04-25T05:52:02;10.23;;;9.23;;
42384;SDS011;28042;43.986;22.860;2023-04-25T05:54:28;13.00;;;9.70;;
42384;SDS011;28042;43.986;22.860;2023-04-25T05:56:55;10.57;;;8.73;;
42384;SDS011;28042;43.986;22.860;2023-04-25T05:59:22;11.70;;;7.60;;
42384;SDS011;28042;43.986;22.860;2023-04-25T06:01:47;8.20;;;6.78;;
42384;SDS011;28042;43.986;22.860;2023-04-25T06:04:13;9.65;;;6.85;;
42384;SDS011;28042;43.986;22.860;2023-04-25T06:06:38;8.75;;;5.88;;
42384;SDS011;28042;43.986;22.860;2023-04-25T06:09:03;8.00;;;5.63;;
42384;SDS011;28042;43.986;22.860;2023-04-25T06:11:29;7.28;;;5.75;;
42384;SDS011;28042;43.986;22.860;2023-04-25T06:13:54;6.32;;;3.92;;
42384;SDS011;28042;43.986;22.860;2023-04-25T06:16:20;5.40;;;4.80;;
42384;SDS011;28042;43.986;22.860;2023-04-25T06:18:45;7.45;;;5.50;;
42384;SDS011;28042;43.986;22.860;2023-04-25T06:21:11;17.42;;;6.22;;
42384;SDS011;28042;43.986;22.860;2023-04-25T06:23:36;10.75;;;6.57;;
42384;SDS011;28042;43.986;22.860;2023-04-25T06:26:02;8.02;;;5.00;;
42384;SDS011;28042;43.986;22.860;2023-04-25T06:28:27;10.15;;;4.93;;
42384;SDS011;28042;43.986;22.860;2023-04-25T06:30:53;7.50;;;3.35;;
42384;SDS011;28042;43.986;22.860;2023-04-25T06:33:18;6.13;;;3.45;;
42384;SDS011;28042;43.986;22.860;2023-04-25T06:35:45;6.97;;;3.20;;
42384;SDS011;28042;43.986;22.860;2023-04-25T06:38:10;7.03;;;3.63;;
42384;SDS011;28042;43.986;22.860;2023-04-25T06:40:36;7.22;;;4.30;;
42384;SDS011;28042;43.986;22.860;2023-04-25T06:43:01;9.52;;;3.65;;
42384;SDS011;28042;43.986;22.860;2023-04-25T06:45:27;6.85;;;4.00;;
42384;SDS011;28042;43.986;22.860;2023-04-25T06:47:52;5.53;;;3.40;;
42384;SDS011;28042;43.986;22.860;2023-04-25T06:50:17;5.43;;;3.40;;
42384;SDS011;28042;43.986;22.860;2023-04-25T06:52:43;4.75;;;2.90;;
42384;SDS011;28042;43.986;22.860;2023-04-25T06:55:08;5.38;;;3.53;;
42384;SDS011;28042;43.986;22.860;2023-04-25T06:57:34;8.15;;;3.53;;
42384;SDS011;28042;43.986;22.860;2023-04-25T07:00:00;5.53;;;3.25;;
42384;SDS011;28042;43.986;22.860;2023-04-25T07:02:25;3.78;;;1.60;;
42384;SDS011;28042;43.986;22.860;2023-04-25T07:04:51;6.13;;;3.20;;
42384;SDS011;28042;43.986;22.860;2023-04-25T07:07:16;7.93;;;5.53;;
42384;SDS011;28042;43.986;22.860;2023-04-25T07:09:42;3.97;;;2.40;;
42384;SDS011;28042;43.986;22.860;2023-04-25T07:12:07;4.70;;;2.70;;
42384;SDS011;28042;43.986;22.860;2023-04-25T07:14:33;6.20;;;2.90;;
42384;SDS011;28042;43.986;22.860;2023-04-25T07:16:58;3.45;;;2.10;;
42384;SDS011;28042;43.986;22.860;2023-04-25T07:19:24;6.40;;;2.35;;
42384;SDS011;28042;43.986;22.860;2023-04-25T07:21:51;6.75;;;2.83;;
42384;SDS011;28042;43.986;22.860;2023-04-25T07:24:17;5.40;;;2.03;;
42384;SDS011;28042;43.986;22.860;2023-04-25T07:26:42;7.45;;;2.75;;
42384;SDS011;28042;43.986;22.860;2023-04-25T07:29:08;6.13;;;2.70;;
42384;SDS011;28042;43.986;22.860;2023-04-25T07:31:34;8.60;;;2.10;;
42384;SDS011;28042;43.986;22.860;2023-04-25T07:34:02;3.80;;;1.83;;
42384;SDS011;28042;43.986;22.860;2023-04-25T07:36:29;9.03;;;2.10;;
42384;SDS011;28042;43.986;22.860;2023-04-25T07:38:55;12.57;;;4.32;;
42384;SDS011;28042;43.986;22.860;2023-04-25T07:41:21;8.50;;;2.97;;
42384;SDS011;28042;43.986;22.860;2023-04-25T07:43:47;2.33;;;1.58;;
42384;SDS011;28042;43.986;22.860;2023-04-25T07:46:12;3.83;;;1.30;;
42384;SDS011;28042;43.986;22.860;2023-04-25T07:48:38;5.47;;;1.50;;
42384;SDS011;28042;43.986;22.860;2023-04-25T07:51:03;4.25;;;1.65;;
42384;SDS011;28042;43.986;22.860;2023-04-25T07:53:30;3.83;;;1.50;;
42384;SDS011;28042;43.986;22.860;2023-04-25T07:55:56;2.92;;;1.13;;
42384;SDS011;28042;43.986;22.860;2023-04-25T07:58:21;9.75;;;2.00;;
42384;SDS011;28042;43.986;22.860;2023-04-25T08:00:48;8.00;;;1.85;;
42384;SDS011;28042;43.986;22.860;2023-04-25T08:03:13;6.53;;;1.58;;
42384;SDS011;28042;43.986;22.860;2023-04-25T08:05:39;8.85;;;2.10;;
42384;SDS011;28042;43.986;22.860;2023-04-25T08:08:04;6.25;;;1.40;;
42384;SDS011;28042;43.986;22.860;2023-04-25T08:10:32;3.33;;;1.30;;
42384;SDS011;28042;43.986;22.860;2023-04-25T08:12:58;3.47;;;1.40;;
42384;SDS011;28042;43.986;22.860;2023-04-25T08:15:24;4.78;;;1.33;;
42384;SDS011;28042;43.986;22.860;2023-04-25T08:17:50;5.35;;;1.55;;
42384;SDS011;28042;43.986;22.860;2023-04-25T08:20:15;5.28;;;1.58;;
42384;SDS011;28042;43.986;22.860;2023-04-25T08:22:41;3.03;;;1.40;;
42384;SDS011;28042;43.986;22.860;2023-04-25T08:25:06;10.30;;;1.55;;
42384;SDS011;28042;43.986;22.860;2023-04-25T08:27:32;5.57;;;1.80;;
42384;SDS011;28042;43.986;22.860;2023-04-25T08:29:57;2.33;;;1.23;;
42384;SDS011;28042;43.986;22.860;2023-04-25T08:32:23;4.38;;;1.48;;
42384;SDS011;28042;43.986;22.860;2023-04-25T08:34:49;7.85;;;1.45;;
42384;SDS011;28042;43.986;22.860;2023-04-25T08:37:16;4.50;;;1.40;;
42384;SDS011;28042;43.986;22.860;2023-04-25T08:39:41;3.55;;;1.30;;
42384;SDS011;28042;43.986;22.860;2023-04-25T08:42:07;5.43;;;1.27;;
42384;SDS011;28042;43.986;22.860;2023-04-25T08:44:35;3.72;;;1.30;;
42384;SDS011;28042;43.986;22.860;2023-04-25T08:47:02;8.13;;;1.38;;
42384;SDS011;28042;43.986;22.860;2023-04-25T08:49:30;6.28;;;1.63;;
42384;SDS011;28042;43.986;22.860;2023-04-25T08:51:59;12.10;;;2.10;;
42384;SDS011;28042;43.986;22.860;2023-04-25T08:54:25;3.65;;;1.50;;
42384;SDS011;28042;43.986;22.860;2023-04-25T08:56:53;7.97;;;2.20;;
42384;SDS011;28042;43.986;22.860;2023-04-25T08:59:22;1.90;;;0.95;;
42384;SDS011;28042;43.986;22.860;2023-04-25T09:01:49;5.38;;;1.17;;
42384;SDS011;28042;43.986;22.860;2023-04-25T09:04:15;3.72;;;1.58;;
42384;SDS011;28042;43.986;22.860;2023-04-25T09:06:40;4.38;;;1.38;;
42384;SDS011;28042;43.986;22.860;2023-04-25T09:09:07;9.88;;;2.97;;
42384;SDS011;28042;43.986;22.860;2023-04-25T09:11:36;8.30;;;1.38;;
42384;SDS011;28042;43.986;22.860;2023-04-25T09:14:15;15.70;;;1.83;;
42384;SDS011;28042;43.986;22.860;2023-04-25T09:19:36;9.73;;;1.77;;
42384;SDS011;28042;43.986;22.860;2023-04-25T09:22:05;3.78;;;1.20;;
42384;SDS011;28042;43.986;22.860;2023-04-25T09:24:35;1.65;;;1.20;;
42384;SDS011;28042;43.986;22.860;2023-04-25T09:27:03;4.97;;;1.42;;
42384;SDS011;28042;43.986;22.860;2023-04-25T09:29:33;6.97;;;1.80;;
42384;SDS011;28042;43.986;22.860;2023-04-25T09:32:21;7.00;;;2.55;;
42384;SDS011;28042;43.986;22.860;2023-04-25T09:34:48;3.45;;;1.60;;
42384;SDS011;28042;43.986;22.860;2023-04-25T09:39:45;19.33;;;3.25;;
42384;SDS011;28042;43.986;22.860;2023-04-25T09:42:13;2.78;;;1.85;;
42384;SDS011;28042;43.986;22.860;2023-04-25T09:44:46;2.28;;;1.30;;
42384;SDS011;28042;43.986;22.860;2023-04-25T09:47:13;4.60;;;1.52;;
42384;SDS011;28042;43.986;22.860;2023-04-25T09:52:07;2.85;;;1.40;;
42384;SDS011;28042;43.986;22.860;2023-04-25T09:54:33;4.82;;;1.70;;
42384;SDS011;28042;43.986;22.860;2023-04-25T09:56:59;6.07;;;1.65;;
42384;SDS011;28042;43.986;22.860;2023-04-25T09:59:35;3.67;;;1.20;;
42384;SDS011;28042;43.986;22.860;2023-04-25T10:02:04;2.50;;;1.13;;
42384;SDS011;28042;43.986;22.860;2023-04-25T10:04:32;1.30;;;1.20;;
42384;SDS011;28042;43.986;22.860;2023-04-25T10:07:01;9.13;;;1.33;;
42384;SDS011;28042;43.986;22.860;2023-04-25T10:11:58;6.28;;;2.00;;
42384;SDS011;28042;43.986;22.860;2023-04-25T10:14:24;7.70;;;3.78;;
42384;SDS011;28042;43.986;22.860;2023-04-25T10:16:51;8.48;;;4.20;;
42384;SDS011;28042;43.986;22.860;2023-04-25T10:19:20;11.70;;;4.60;;
42384;SDS011;28042;43.986;22.860;2023-04-25T10:21:51;8.25;;;4.30;;
42384;SDS011;28042;43.986;22.860;2023-04-25T10:24:20;9.18;;;3.80;;
42384;SDS011;28042;43.986;22.860;2023-04-25T10:26:47;6.72;;;3.08;;
42384;SDS011;28042;43.986;22.860;2023-04-25T10:29:14;6.82;;;3.42;;
42384;SDS011;28042;43.986;22.860;2023-04-25T10:31:47;5.82;;;3.13;;
42384;SDS011;28042;43.986;22.860;2023-04-25T10:34:13;7.55;;;2.85;;
42384;SDS011;28042;43.986;22.860;2023-04-25T10:36:38;5.15;;;2.17;;
42384;SDS011;28042;43.986;22.860;2023-04-25T10:39:05;8.27;;;2.95;;
42384;SDS011;28042;43.986;22.860;2023-04-25T10:41:32;5.10;;;2.97;;
42384;SDS011;28042;43.986;22.860;2023-04-25T10:44:12;7.07;;;3.08;;
42384;SDS011;28042;43.986;22.860;2023-04-25T10:46:39;6.73;;;2.77;;
42384;SDS011;28042;43.986;22.860;2023-04-25T10:49:04;2.80;;;2.22;;
42384;SDS011;28042;43.986;22.860;2023-04-25T10:51:33;2.90;;;1.88;;
42384;SDS011;28042;43.986;22.860;2023-04-25T10:54:06;3.05;;;1.45;;
42384;SDS011;28042;43.986;22.860;2023-04-25T10:56:33;2.50;;;1.20;;
42384;SDS011;28042;43.986;22.860;2023-04-25T10:59:05;3.63;;;1.17;;
42384;SDS011;28042;43.986;22.860;2023-04-25T11:01:40;2.80;;;0.90;;
42384;SDS011;28042;43.986;22.860;2023-04-25T11:09:39;4.63;;;1.60;;
42384;SDS011;28042;43.986;22.860;2023-04-25T11:12:07;5.63;;;2.00;;
42384;SDS011;28042;43.986;22.860;2023-04-25T11:14:34;4.53;;;1.55;;
42384;SDS011;28042;43.986;22.860;2023-04-25T11:17:00;3.15;;;1.10;;
42384;SDS011;28042;43.986;22.860;2023-04-25T11:19:28;1.38;;;0.90;;
42384;SDS011;28042;43.986;22.860;2023-04-25T11:21:55;2.53;;;1.20;;
42384;SDS011;28042;43.986;22.860;2023-04-25T11:24:31;1.20;;;0.90;;
42384;SDS011;28042;43.986;22.860;2023-04-25T11:27:01;2.95;;;1.10;;
42384;SDS011;28042;43.986;22.860;2023-04-25T11:29:28;1.95;;;0.90;;
42384;SDS011;28042;43.986;22.860;2023-04-25T11:34:23;1.55;;;1.00;;
42384;SDS011;28042;43.986;22.860;2023-04-25T11:36:50;1.63;;;1.10;;
42384;SDS011;28042;43.986;22.860;2023-04-25T11:39:17;2.20;;;1.23;;
42384;SDS011;28042;43.986;22.860;2023-04-25T11:41:44;2.05;;;1.10;;
42384;SDS011;28042;43.986;22.860;2023-04-25T11:44:09;2.00;;;0.88;;
42384;SDS011;28042;43.986;22.860;2023-04-25T11:46:35;1.15;;;0.80;;
42384;SDS011;28042;43.986;22.860;2023-04-25T11:49:00;3.42;;;1.17;;
42384;SDS011;28042;43.986;22.860;2023-04-25T11:51:27;2.90;;;1.00;;
42384;SDS011;28042;43.986;22.860;2023-04-25T11:53:52;5.25;;;1.30;;
42384;SDS011;28042;43.986;22.860;2023-04-25T11:56:18;2.97;;;1.50;;
42384;SDS011;28042;43.986;22.860;2023-04-25T11:58:56;2.50;;;1.27;;
42384;SDS011;28042;43.986;22.860;2023-04-25T12:01:30;2.05;;;1.15;;
42384;SDS011;28042;43.986;22.860;2023-04-25T12:03:57;4.38;;;1.40;;
42384;SDS011;28042;43.986;22.860;2023-04-25T12:06:27;1.58;;;1.23;;
42384;SDS011;28042;43.986;22.860;2023-04-25T12:09:03;7.38;;;1.42;;
42384;SDS011;28042;43.986;22.860;2023-04-25T12:11:35;10.80;;;2.17;;
42384;SDS011;28042;43.986;22.860;2023-04-25T12:14:06;4.90;;;1.55;;
42384;SDS011;28042;43.986;22.860;2023-04-25T12:16:44;4.25;;;1.20;;
42384;SDS011;28042;43.986;22.860;2023-04-25T12:19:13;2.17;;;1.40;;
42384;SDS011;28042;43.986;22.860;2023-04-25T12:21:39;4.60;;;1.50;;
42384;SDS011;28042;43.986;22.860;2023-04-25T12:24:15;2.90;;;1.30;;
42384;SDS011;28042;43.986;22.860;2023-04-25T12:29:28;8.52;;;1.92;;
42384;SDS011;28042;43.986;22.860;2023-04-25T12:31:55;6.95;;;2.08;;
42384;SDS011;28042;43.986;22.860;2023-04-25T12:34:21;3.83;;;1.70;;
42384;SDS011;28042;43.986;22.860;2023-04-25T12:36:48;3.53;;;1.75;;
42384;SDS011;28042;43.986;22.860;2023-04-25T12:39:16;4.97;;;2.20;;
42384;SDS011;28042;43.986;22.860;2023-04-25T12:41:46;2.55;;;1.40;;
42384;SDS011;28042;43.986;22.860;2023-04-25T12:44:12;5.97;;;1.70;;
42384;SDS011;28042;43.986;22.860;2023-04-25T12:46:38;3.50;;;1.60;;
42384;SDS011;28042;43.986;22.860;2023-04-25T12:49:05;4.53;;;1.73;;
42384;SDS011;28042;43.986;22.860;2023-04-25T12:51:32;5.03;;;1.98;;
42384;SDS011;28042;43.986;22.860;2023-04-25T12:53:58;3.47;;;1.98;;
42384;SDS011;28042;43.986;22.860;2023-04-25T12:56:25;8.37;;;2.00;;
42384;SDS011;28042;43.986;22.860;2023-04-25T12:58:51;6.10;;;2.08;;
42384;SDS011;28042;43.986;22.860;2023-04-25T13:01:17;9.50;;;2.60;;
42384;SDS011;28042;43.986;22.860;2023-04-25T13:03:42;5.45;;;1.92;;
42384;SDS011;28042;43.986;22.860;2023-04-25T13:06:08;3.70;;;1.83;;
42384;SDS011;28042;43.986;22.860;2023-04-25T13:08:33;3.17;;;1.80;;
42384;SDS011;28042;43.986;22.860;2023-04-25T13:11:00;4.38;;;2.45;;
42384;SDS011;28042;43.986;22.860;2023-04-25T13:13:25;6.03;;;2.75;;
42384;SDS011;28042;43.986;22.860;2023-04-25T13:15:52;3.92;;;2.10;;
42384;SDS011;28042;43.986;22.860;2023-04-25T13:18:18;3.05;;;2.00;;
42384;SDS011;28042;43.986;22.860;2023-04-25T13:20:44;11.43;;;2.42;;
42384;SDS011;28042;43.986;22.860;2023-04-25T13:23:11;5.70;;;2.83;;
42384;SDS011;28042;43.986;22.860;2023-04-25T13:25:36;4.22;;;3.00;;
42384;SDS011;28042;43.986;22.860;2023-04-25T13:28:02;6.38;;;2.72;;
42384;SDS011;28042;43.986;22.860;2023-04-25T13:30:28;5.03;;;1.95;;
42384;SDS011;28042;43.986;22.860;2023-04-25T13:32:53;4.88;;;1.73;;
42384;SDS011;28042;43.986;22.860;2023-04-25T13:35:21;3.72;;;1.90;;
42384;SDS011;28042;43.986;22.860;2023-04-25T13:37:47;5.57;;;2.00;;
42384;SDS011;28042;43.986;22.860;2023-04-25T13:40:13;1.98;;;1.45;;
42384;SDS011;28042;43.986;22.860;2023-04-25T13:42:39;2.28;;;1.58;;
42384;SDS011;28042;43.986;22.860;2023-04-25T13:45:06;3.67;;;1.50;;
42384;SDS011;28042;43.986;22.860;2023-04-25T13:47:32;3.50;;;1.80;;
42384;SDS011;28042;43.986;22.860;2023-04-25T13:49:58;2.97;;;1.30;;
42384;SDS011;28042;43.986;22.860;2023-04-25T13:52:24;3.75;;;1.60;;
42384;SDS011;28042;43.986;22.860;2023-04-25T13:54:50;6.43;;;1.83;;
42384;SDS011;28042;43.986;22.860;2023-04-25T13:57:16;4.38;;;1.67;;
42384;SDS011;28042;43.986;22.860;2023-04-25T13:59:42;5.32;;;2.90;;
42384;SDS011;28042;43.986;22.860;2023-04-25T14:02:08;6.80;;;3.90;;
42384;SDS011;28042;43.986;22.860;2023-04-25T14:04:33;6.85;;;3.75;;
42384;SDS011;28042;43.986;22.860;2023-04-25T14:06:59;6.95;;;4.57;;
42384;SDS011;28042;43.986;22.860;2023-04-25T14:09:25;4.95;;;3.60;;
42384;SDS011;28042;43.986;22.860;2023-04-25T14:11:52;7.65;;;3.70;;
42384;SDS011;28042;43.986;22.860;2023-04-25T14:14:18;6.75;;;4.70;;
42384;SDS011;28042;43.986;22.860;2023-04-25T14:16:44;12.07;;;5.93;;
42384;SDS011;28042;43.986;22.860;2023-04-25T14:19:13;7.72;;;6.20;;
42384;SDS011;28042;43.986;22.860;2023-04-25T14:21:39;7.15;;;5.43;;
42384;SDS011;28042;43.986;22.860;2023-04-25T14:24:04;8.60;;;5.50;;
42384;SDS011;28042;43.986;22.860;2023-04-25T14:26:30;9.35;;;6.97;;
42384;SDS011;28042;43.986;22.860;2023-04-25T14:28:55;9.38;;;5.97;;
42384;SDS011;28042;43.986;22.860;2023-04-25T14:31:21;7.10;;;5.82;;
42384;SDS011;28042;43.986;22.860;2023-04-25T14:33:47;7.68;;;5.47;;
42384;SDS011;28042;43.986;22.860;2023-04-25T14:36:12;8.02;;;5.93;;
42384;SDS011;28042;43.986;22.860;2023-04-25T14:38:39;7.85;;;5.57;;
42384;SDS011;28042;43.986;22.860;2023-04-25T14:41:04;6.88;;;5.22;;
42384;SDS011;28042;43.986;22.860;2023-04-25T14:43:30;7.18;;;6.05;;
42384;SDS011;28042;43.986;22.860;2023-04-25T14:45:56;8.43;;;5.68;;